ROMMA est une association bénévole à but non lucratif. Votre soutien est indispensable : ADHERER à ROMMA ou FAIRE un DON

Granges-lès-Beaumont - (26, Drôme)

Drôme des Collines (155 m)   Longitude: 04°58'E   Latitude: 45°03'N Station partenaire n°123
 

Détail journalier du     <<     >>

Température Precipitation Humidité Pression Vent Dir Rafale Dir. rafale Ensol.
Heure (°C) (mm) (%) (hPa) (km/h) (km/h) (min)
01:00 4.108010243NNO10NE0
02:00 4.008210242NNO6NNO0
03:00 3.108310244NNO8NE0
04:00 2.308310241---6ENE0
05:00 1.808510243NO8NNO0
06:00 1.508610242NNE6NNO0
07:00 -0.3085102406ONO0
08:00 2.108810255NNO15NNO0
09:00 5.608210254NE11NO50
10:00 7.807410253ENE11ENE20
11:00 12.306310253SO6SO0
12:00 18.104310257SO26N20
13:00 19.9037102517N34N60
14:00 20.7035102418N31NNE60
15:00 20.4037102320NNE35NE60
16:00 19.9038102316NNE29N60
17:00 18.4038102316N31N60
18:00 16.4042102216NNE31NNE60
19:00 13.9059102315NNE27N0
20:00 11.9066102419N35N0
21:00 10.6068102416N29N0
22:00 9.7070102512ENE24N0
23:00 8.207410255NO10NE0
minuit 6.807810244NO11NO0

Graphique du 28-02-2019

 

Serveur OMMA